sensor_id;sensor_type;location;lat;lon;timestamp;P1;durP1;ratioP1;P2;durP2;ratioP2
75928;SDS011;64606;44.062;2.986;2023-06-04T07:40:17;10.35;;;6.63;;
75928;SDS011;64606;44.062;2.986;2023-06-04T08:02:36;8.55;;;6.05;;
75928;SDS011;64606;44.062;2.986;2023-06-04T08:33:02;9.65;;;6.80;;
75928;SDS011;64606;44.062;2.986;2023-06-04T08:35:55;9.88;;;6.22;;
75928;SDS011;64606;44.062;2.986;2023-06-04T08:38:43;10.90;;;6.13;;
75928;SDS011;64606;44.062;2.986;2023-06-04T08:53:30;10.45;;;5.97;;
75928;SDS011;64606;44.062;2.986;2023-06-04T08:56:25;7.78;;;5.78;;
75928;SDS011;64606;44.062;2.986;2023-06-04T08:59:10;6.55;;;5.03;;
75928;SDS011;64606;44.062;2.986;2023-06-04T09:01:44;7.50;;;5.95;;
75928;SDS011;64606;44.062;2.986;2023-06-04T09:04:29;7.60;;;5.00;;
75928;SDS011;64606;44.062;2.986;2023-06-04T09:10:17;10.23;;;5.30;;
75928;SDS011;64606;44.062;2.986;2023-06-04T09:12:45;6.85;;;5.18;;
75928;SDS011;64606;44.062;2.986;2023-06-04T09:15:12;5.72;;;4.75;;
75928;SDS011;64606;44.062;2.986;2023-06-04T09:17:54;8.38;;;4.90;;
75928;SDS011;64606;44.062;2.986;2023-06-04T09:23:44;6.07;;;5.05;;
75928;SDS011;64606;44.062;2.986;2023-06-04T09:26:20;8.43;;;5.32;;
75928;SDS011;64606;44.062;2.986;2023-06-04T09:37:57;5.32;;;4.15;;
75928;SDS011;64606;44.062;2.986;2023-06-04T09:40:39;5.82;;;4.45;;
75928;SDS011;64606;44.062;2.986;2023-06-04T09:43:20;5.43;;;4.15;;
75928;SDS011;64606;44.062;2.986;2023-06-04T09:46:06;4.90;;;3.28;;
75928;SDS011;64606;44.062;2.986;2023-06-04T09:48:58;5.28;;;3.20;;
75928;SDS011;64606;44.062;2.986;2023-06-04T12:56:04;2.45;;;1.73;;
75928;SDS011;64606;44.062;2.986;2023-06-04T13:04:56;2.42;;;1.70;;
75928;SDS011;64606;44.062;2.986;2023-06-04T13:07:40;3.35;;;1.90;;
75928;SDS011;64606;44.062;2.986;2023-06-04T13:10:06;2.13;;;1.60;;
75928;SDS011;64606;44.062;2.986;2023-06-04T13:12:35;1.52;;;1.42;;
75928;SDS011;64606;44.062;2.986;2023-06-04T13:15:02;3.58;;;1.90;;
75928;SDS011;64606;44.062;2.986;2023-06-04T13:17:28;2.35;;;1.70;;
75928;SDS011;64606;44.062;2.986;2023-06-04T13:19:58;2.33;;;1.77;;
75928;SDS011;64606;44.062;2.986;2023-06-04T13:22:24;2.15;;;1.48;;
75928;SDS011;64606;44.062;2.986;2023-06-04T13:24:50;2.92;;;1.60;;
75928;SDS011;64606;44.062;2.986;2023-06-04T13:27:17;3.05;;;1.70;;
75928;SDS011;64606;44.062;2.986;2023-06-04T13:29:43;3.88;;;1.70;;
75928;SDS011;64606;44.062;2.986;2023-06-04T13:32:09;5.15;;;1.80;;
75928;SDS011;64606;44.062;2.986;2023-06-04T13:34:38;3.20;;;1.70;;
75928;SDS011;64606;44.062;2.986;2023-06-04T13:37:04;1.92;;;1.60;;
75928;SDS011;64606;44.062;2.986;2023-06-04T13:39:30;2.33;;;1.65;;
75928;SDS011;64606;44.062;2.986;2023-06-04T13:41:56;2.03;;;1.60;;
75928;SDS011;64606;44.062;2.986;2023-06-04T13:44:22;5.47;;;1.80;;
75928;SDS011;64606;44.062;2.986;2023-06-04T13:46:51;2.28;;;1.70;;
75928;SDS011;64606;44.062;2.986;2023-06-04T13:49:18;6.45;;;1.77;;
75928;SDS011;64606;44.062;2.986;2023-06-04T13:51:44;1.65;;;1.55;;
75928;SDS011;64606;44.062;2.986;2023-06-04T13:54:10;3.42;;;1.73;;
75928;SDS011;64606;44.062;2.986;2023-06-04T13:56:37;2.83;;;1.60;;
75928;SDS011;64606;44.062;2.986;2023-06-04T13:59:03;3.30;;;1.50;;
75928;SDS011;64606;44.062;2.986;2023-06-04T14:01:31;3.92;;;1.75;;
75928;SDS011;64606;44.062;2.986;2023-06-04T14:04:00;4.45;;;2.03;;
75928;SDS011;64606;44.062;2.986;2023-06-04T14:06:40;3.38;;;1.55;;
75928;SDS011;64606;44.062;2.986;2023-06-04T14:09:18;3.92;;;1.90;;
75928;SDS011;64606;44.062;2.986;2023-06-04T14:12:20;2.45;;;1.67;;
75928;SDS011;64606;44.062;2.986;2023-06-04T14:24:19;2.45;;;1.60;;
75928;SDS011;64606;44.062;2.986;2023-06-04T14:26:48;3.90;;;1.33;;
75928;SDS011;64606;44.062;2.986;2023-06-04T14:29:14;3.03;;;1.88;;
75928;SDS011;64606;44.062;2.986;2023-06-04T14:31:40;2.05;;;1.70;;
75928;SDS011;64606;44.062;2.986;2023-06-04T14:34:06;3.47;;;1.63;;
75928;SDS011;64606;44.062;2.986;2023-06-04T14:36:34;1.98;;;1.70;;
75928;SDS011;64606;44.062;2.986;2023-06-04T14:39:00;2.35;;;1.50;;
75928;SDS011;64606;44.062;2.986;2023-06-04T14:41:26;4.30;;;1.70;;
75928;SDS011;64606;44.062;2.986;2023-06-04T14:44:02;5.55;;;2.17;;
75928;SDS011;64606;44.062;2.986;2023-06-04T14:46:31;5.10;;;2.83;;
75928;SDS011;64606;44.062;2.986;2023-06-04T14:49:00;4.32;;;2.40;;
75928;SDS011;64606;44.062;2.986;2023-06-04T14:51:29;5.95;;;2.05;;
75928;SDS011;64606;44.062;2.986;2023-06-04T14:53:57;5.13;;;2.40;;
75928;SDS011;64606;44.062;2.986;2023-06-04T14:56:28;3.08;;;2.00;;
75928;SDS011;64606;44.062;2.986;2023-06-04T15:01:45;4.10;;;2.15;;
75928;SDS011;64606;44.062;2.986;2023-06-04T15:04:14;4.68;;;2.10;;
75928;SDS011;64606;44.062;2.986;2023-06-04T15:06:41;3.58;;;2.08;;
75928;SDS011;64606;44.062;2.986;2023-06-04T15:09:09;4.05;;;1.75;;
75928;SDS011;64606;44.062;2.986;2023-06-04T15:11:50;3.38;;;2.13;;
75928;SDS011;64606;44.062;2.986;2023-06-04T15:14:55;3.95;;;2.53;;
75928;SDS011;64606;44.062;2.986;2023-06-04T15:17:49;15.77;;;4.25;;
75928;SDS011;64606;44.062;2.986;2023-06-04T15:23:10;0.20;;;0.20;;
75928;SDS011;64606;44.062;2.986;2023-06-04T15:25:36;0.20;;;0.20;;
75928;SDS011;64606;44.062;2.986;2023-06-04T15:28:04;0.20;;;0.20;;
75928;SDS011;64606;44.062;2.986;2023-06-04T15:30:32;0.10;;;0.10;;
75928;SDS011;64606;44.062;2.986;2023-06-04T15:32:58;0.10;;;0.10;;
75928;SDS011;64606;44.062;2.986;2023-06-04T15:35:26;0.13;;;0.13;;
75928;SDS011;64606;44.062;2.986;2023-06-04T15:37:52;0.20;;;0.20;;
75928;SDS011;64606;44.062;2.986;2023-06-04T15:40:18;0.10;;;0.10;;
75928;SDS011;64606;44.062;2.986;2023-06-04T15:42:44;0.20;;;0.20;;
75928;SDS011;64606;44.062;2.986;2023-06-04T15:45:10;0.20;;;0.20;;
75928;SDS011;64606;44.062;2.986;2023-06-04T15:47:36;0.10;;;0.10;;
75928;SDS011;64606;44.062;2.986;2023-06-04T15:50:03;0.30;;;0.30;;
75928;SDS011;64606;44.062;2.986;2023-06-04T15:52:29;0.20;;;0.20;;
75928;SDS011;64606;44.062;2.986;2023-06-04T15:54:55;0.10;;;0.10;;
75928;SDS011;64606;44.062;2.986;2023-06-04T15:57:21;0.13;;;0.13;;
75928;SDS011;64606;44.062;2.986;2023-06-04T15:59:47;0.10;;;0.10;;
75928;SDS011;64606;44.062;2.986;2023-06-04T16:02:13;0.08;;;0.08;;
75928;SDS011;64606;44.062;2.986;2023-06-04T16:04:39;0.70;;;0.50;;
75928;SDS011;64606;44.062;2.986;2023-06-04T16:07:06;0.10;;;0.10;;
75928;SDS011;64606;44.062;2.986;2023-06-04T16:09:32;0.10;;;0.10;;
75928;SDS011;64606;44.062;2.986;2023-06-04T16:11:58;0.20;;;0.20;;
75928;SDS011;64606;44.062;2.986;2023-06-04T16:14:24;0.10;;;0.10;;
75928;SDS011;64606;44.062;2.986;2023-06-04T16:16:50;0.10;;;0.10;;
75928;SDS011;64606;44.062;2.986;2023-06-04T16:19:17;0.10;;;0.10;;
75928;SDS011;64606;44.062;2.986;2023-06-04T16:21:43;0.00;;;0.00;;
75928;SDS011;64606;44.062;2.986;2023-06-04T16:24:09;0.17;;;0.17;;
75928;SDS011;64606;44.062;2.986;2023-06-04T16:26:36;0.10;;;0.10;;
75928;SDS011;64606;44.062;2.986;2023-06-04T16:29:02;0.30;;;0.30;;
75928;SDS011;64606;44.062;2.986;2023-06-04T16:31:28;0.00;;;0.00;;
75928;SDS011;64606;44.062;2.986;2023-06-04T16:33:54;0.20;;;0.20;;
75928;SDS011;64606;44.062;2.986;2023-06-04T16:36:20;0.35;;;0.35;;
75928;SDS011;64606;44.062;2.986;2023-06-04T16:38:46;1.70;;;0.85;;
75928;SDS011;64606;44.062;2.986;2023-06-04T16:41:13;0.10;;;0.10;;
75928;SDS011;64606;44.062;2.986;2023-06-04T16:43:39;0.08;;;0.08;;
75928;SDS011;64606;44.062;2.986;2023-06-04T16:46:05;0.20;;;0.20;;
75928;SDS011;64606;44.062;2.986;2023-06-04T16:48:31;0.10;;;0.10;;
75928;SDS011;64606;44.062;2.986;2023-06-04T16:50:57;2.08;;;0.40;;
75928;SDS011;64606;44.062;2.986;2023-06-04T16:53:23;0.40;;;0.40;;
75928;SDS011;64606;44.062;2.986;2023-06-04T16:55:49;0.10;;;0.10;;
75928;SDS011;64606;44.062;2.986;2023-06-04T16:58:16;0.10;;;0.10;;
75928;SDS011;64606;44.062;2.986;2023-06-04T17:00:42;0.00;;;0.00;;
75928;SDS011;64606;44.062;2.986;2023-06-04T17:03:09;0.10;;;0.10;;
75928;SDS011;64606;44.062;2.986;2023-06-04T17:05:36;0.10;;;0.10;;
75928;SDS011;64606;44.062;2.986;2023-06-04T17:08:02;0.00;;;0.00;;
75928;SDS011;64606;44.062;2.986;2023-06-04T17:10:31;0.45;;;0.15;;
75928;SDS011;64606;44.062;2.986;2023-06-04T17:13:00;0.25;;;0.25;;
75928;SDS011;64606;44.062;2.986;2023-06-04T17:15:27;0.10;;;0.10;;
75928;SDS011;64606;44.062;2.986;2023-06-04T17:17:53;0.30;;;0.30;;
75928;SDS011;64606;44.062;2.986;2023-06-04T17:20:25;0.10;;;0.10;;
75928;SDS011;64606;44.062;2.986;2023-06-04T17:22:51;0.10;;;0.10;;
75928;SDS011;64606;44.062;2.986;2023-06-04T17:25:17;0.00;;;0.00;;
75928;SDS011;64606;44.062;2.986;2023-06-04T17:27:43;0.20;;;0.20;;
75928;SDS011;64606;44.062;2.986;2023-06-04T17:30:10;0.05;;;0.05;;
75928;SDS011;64606;44.062;2.986;2023-06-04T17:32:37;0.20;;;0.20;;
75928;SDS011;64606;44.062;2.986;2023-06-04T17:35:03;0.10;;;0.10;;
75928;SDS011;64606;44.062;2.986;2023-06-04T17:37:29;0.10;;;0.10;;
75928;SDS011;64606;44.062;2.986;2023-06-04T17:39:58;0.10;;;0.10;;
75928;SDS011;64606;44.062;2.986;2023-06-04T17:42:24;0.30;;;0.30;;
75928;SDS011;64606;44.062;2.986;2023-06-04T17:44:50;0.10;;;0.10;;
75928;SDS011;64606;44.062;2.986;2023-06-04T17:47:16;0.10;;;0.10;;
75928;SDS011;64606;44.062;2.986;2023-06-04T17:49:42;0.10;;;0.10;;
75928;SDS011;64606;44.062;2.986;2023-06-04T17:52:08;0.20;;;0.20;;
75928;SDS011;64606;44.062;2.986;2023-06-04T17:54:35;0.13;;;0.13;;
75928;SDS011;64606;44.062;2.986;2023-06-04T17:57:01;0.00;;;0.00;;
75928;SDS011;64606;44.062;2.986;2023-06-04T17:59:27;0.75;;;0.17;;
75928;SDS011;64606;44.062;2.986;2023-06-04T18:01:53;0.08;;;0.08;;
75928;SDS011;64606;44.062;2.986;2023-06-04T18:04:19;0.10;;;0.10;;
75928;SDS011;64606;44.062;2.986;2023-06-04T18:06:45;0.10;;;0.10;;
75928;SDS011;64606;44.062;2.986;2023-06-04T18:09:11;0.15;;;0.15;;
75928;SDS011;64606;44.062;2.986;2023-06-04T18:11:37;0.10;;;0.10;;
75928;SDS011;64606;44.062;2.986;2023-06-04T18:14:04;0.10;;;0.10;;
75928;SDS011;64606;44.062;2.986;2023-06-04T18:16:30;0.25;;;0.20;;
75928;SDS011;64606;44.062;2.986;2023-06-04T18:18:56;0.00;;;0.00;;
75928;SDS011;64606;44.062;2.986;2023-06-04T18:21:22;0.30;;;0.30;;
75928;SDS011;64606;44.062;2.986;2023-06-04T18:23:48;0.20;;;0.20;;
75928;SDS011;64606;44.062;2.986;2023-06-04T18:26:17;0.70;;;0.55;;
75928;SDS011;64606;44.062;2.986;2023-06-04T18:28:43;0.20;;;0.20;;
75928;SDS011;64606;44.062;2.986;2023-06-04T18:31:09;0.10;;;0.10;;
75928;SDS011;64606;44.062;2.986;2023-06-04T18:33:35;0.17;;;0.17;;
75928;SDS011;64606;44.062;2.986;2023-06-04T18:36:06;0.20;;;0.20;;
75928;SDS011;64606;44.062;2.986;2023-06-04T18:38:32;0.10;;;0.10;;
75928;SDS011;64606;44.062;2.986;2023-06-04T18:40:58;0.10;;;0.10;;
75928;SDS011;64606;44.062;2.986;2023-06-04T18:43:24;0.32;;;0.32;;
75928;SDS011;64606;44.062;2.986;2023-06-04T18:45:50;0.17;;;0.17;;
75928;SDS011;64606;44.062;2.986;2023-06-04T18:48:16;0.20;;;0.20;;
75928;SDS011;64606;44.062;2.986;2023-06-04T18:50:42;0.00;;;0.00;;
75928;SDS011;64606;44.062;2.986;2023-06-04T18:53:10;0.00;;;0.00;;
75928;SDS011;64606;44.062;2.986;2023-06-04T18:55:36;0.00;;;0.00;;
75928;SDS011;64606;44.062;2.986;2023-06-04T18:58:03;0.05;;;0.05;;
75928;SDS011;64606;44.062;2.986;2023-06-04T19:00:29;0.05;;;0.05;;
75928;SDS011;64606;44.062;2.986;2023-06-04T19:02:55;0.00;;;0.00;;
75928;SDS011;64606;44.062;2.986;2023-06-04T19:05:21;0.00;;;0.00;;
75928;SDS011;64606;44.062;2.986;2023-06-04T19:07:48;0.10;;;0.10;;
75928;SDS011;64606;44.062;2.986;2023-06-04T19:10:14;0.10;;;0.10;;
75928;SDS011;64606;44.062;2.986;2023-06-04T19:12:40;0.10;;;0.10;;
75928;SDS011;64606;44.062;2.986;2023-06-04T19:15:07;0.00;;;0.00;;
75928;SDS011;64606;44.062;2.986;2023-06-04T19:17:34;0.00;;;0.00;;
75928;SDS011;64606;44.062;2.986;2023-06-04T19:20:00;0.00;;;0.00;;
75928;SDS011;64606;44.062;2.986;2023-06-04T19:22:26;0.00;;;0.00;;
75928;SDS011;64606;44.062;2.986;2023-06-04T19:24:52;0.30;;;0.10;;
75928;SDS011;64606;44.062;2.986;2023-06-04T19:27:18;3.05;;;0.22;;
75928;SDS011;64606;44.062;2.986;2023-06-04T19:29:45;0.00;;;0.00;;
75928;SDS011;64606;44.062;2.986;2023-06-04T19:32:11;0.10;;;0.10;;
75928;SDS011;64606;44.062;2.986;2023-06-04T19:34:37;0.17;;;0.10;;
75928;SDS011;64606;44.062;2.986;2023-06-04T19:37:03;0.10;;;0.10;;
75928;SDS011;64606;44.062;2.986;2023-06-04T19:39:30;0.00;;;0.00;;
75928;SDS011;64606;44.062;2.986;2023-06-04T19:41:56;0.08;;;0.08;;
75928;SDS011;64606;44.062;2.986;2023-06-04T19:44:23;0.10;;;0.10;;
75928;SDS011;64606;44.062;2.986;2023-06-04T19:46:49;0.20;;;0.20;;
75928;SDS011;64606;44.062;2.986;2023-06-04T19:49:15;0.10;;;0.10;;
75928;SDS011;64606;44.062;2.986;2023-06-04T19:51:44;0.00;;;0.00;;
75928;SDS011;64606;44.062;2.986;2023-06-04T19:54:10;0.10;;;0.10;;
75928;SDS011;64606;44.062;2.986;2023-06-04T19:56:36;0.00;;;0.00;;
75928;SDS011;64606;44.062;2.986;2023-06-04T19:59:03;0.75;;;0.55;;
75928;SDS011;64606;44.062;2.986;2023-06-04T20:01:29;0.10;;;0.10;;
75928;SDS011;64606;44.062;2.986;2023-06-04T20:03:55;0.00;;;0.00;;
75928;SDS011;64606;44.062;2.986;2023-06-04T20:06:21;0.10;;;0.10;;
75928;SDS011;64606;44.062;2.986;2023-06-04T20:08:48;0.00;;;0.00;;
75928;SDS011;64606;44.062;2.986;2023-06-04T20:11:14;0.57;;;0.40;;
75928;SDS011;64606;44.062;2.986;2023-06-04T20:13:41;0.00;;;0.00;;
75928;SDS011;64606;44.062;2.986;2023-06-04T20:16:07;0.10;;;0.10;;
75928;SDS011;64606;44.062;2.986;2023-06-04T20:18:33;0.10;;;0.10;;
75928;SDS011;64606;44.062;2.986;2023-06-04T20:21:00;0.10;;;0.10;;
75928;SDS011;64606;44.062;2.986;2023-06-04T20:23:27;0.88;;;0.50;;
75928;SDS011;64606;44.062;2.986;2023-06-04T20:25:53;0.03;;;0.03;;
75928;SDS011;64606;44.062;2.986;2023-06-04T20:28:19;0.20;;;0.20;;
75928;SDS011;64606;44.062;2.986;2023-06-04T20:30:45;0.05;;;0.05;;
75928;SDS011;64606;44.062;2.986;2023-06-04T20:33:11;0.10;;;0.10;;
75928;SDS011;64606;44.062;2.986;2023-06-04T20:35:37;0.10;;;0.10;;
75928;SDS011;64606;44.062;2.986;2023-06-04T20:38:03;2.28;;;0.15;;
75928;SDS011;64606;44.062;2.986;2023-06-04T20:40:30;0.00;;;0.00;;
75928;SDS011;64606;44.062;2.986;2023-06-04T20:42:57;0.10;;;0.10;;
75928;SDS011;64606;44.062;2.986;2023-06-04T20:45:23;0.00;;;0.00;;
75928;SDS011;64606;44.062;2.986;2023-06-04T20:47:49;0.00;;;0.00;;
75928;SDS011;64606;44.062;2.986;2023-06-04T20:50:15;0.00;;;0.00;;
75928;SDS011;64606;44.062;2.986;2023-06-04T20:52:41;0.00;;;0.00;;
75928;SDS011;64606;44.062;2.986;2023-06-04T20:55:08;0.10;;;0.10;;
75928;SDS011;64606;44.062;2.986;2023-06-04T20:57:34;0.10;;;0.10;;
75928;SDS011;64606;44.062;2.986;2023-06-04T21:00:02;0.90;;;0.50;;
75928;SDS011;64606;44.062;2.986;2023-06-04T21:02:28;0.00;;;0.00;;
75928;SDS011;64606;44.062;2.986;2023-06-04T21:04:54;0.10;;;0.10;;
75928;SDS011;64606;44.062;2.986;2023-06-04T21:07:20;0.00;;;0.00;;
75928;SDS011;64606;44.062;2.986;2023-06-04T21:09:46;0.00;;;0.00;;
75928;SDS011;64606;44.062;2.986;2023-06-04T21:12:12;0.10;;;0.10;;
75928;SDS011;64606;44.062;2.986;2023-06-04T21:14:39;0.03;;;0.03;;
75928;SDS011;64606;44.062;2.986;2023-06-04T21:17:05;0.10;;;0.10;;
75928;SDS011;64606;44.062;2.986;2023-06-04T21:19:31;0.00;;;0.00;;
75928;SDS011;64606;44.062;2.986;2023-06-04T21:21:57;0.00;;;0.00;;
75928;SDS011;64606;44.062;2.986;2023-06-04T21:24:23;0.22;;;0.22;;
75928;SDS011;64606;44.062;2.986;2023-06-04T21:26:49;0.20;;;0.20;;
75928;SDS011;64606;44.062;2.986;2023-06-04T21:29:15;0.15;;;0.15;;
75928;SDS011;64606;44.062;2.986;2023-06-04T21:31:41;0.10;;;0.10;;
75928;SDS011;64606;44.062;2.986;2023-06-04T21:34:08;0.15;;;0.15;;
75928;SDS011;64606;44.062;2.986;2023-06-04T21:39:38;0.10;;;0.10;;
75928;SDS011;64606;44.062;2.986;2023-06-04T21:42:04;0.10;;;0.10;;
75928;SDS011;64606;44.062;2.986;2023-06-04T21:44:31;0.10;;;0.10;;
75928;SDS011;64606;44.062;2.986;2023-06-04T21:46:57;0.40;;;0.20;;
75928;SDS011;64606;44.062;2.986;2023-06-04T21:49:23;0.10;;;0.10;;
75928;SDS011;64606;44.062;2.986;2023-06-04T21:51:55;2.50;;;0.50;;
75928;SDS011;64606;44.062;2.986;2023-06-04T21:54:23;2.10;;;1.40;;
75928;SDS011;64606;44.062;2.986;2023-06-04T21:56:52;4.13;;;1.52;;
75928;SDS011;64606;44.062;2.986;2023-06-04T21:59:23;2.60;;;1.50;;
75928;SDS011;64606;44.062;2.986;2023-06-04T22:01:52;5.57;;;1.80;;
75928;SDS011;64606;44.062;2.986;2023-06-04T22:04:36;6.32;;;1.65;;
75928;SDS011;64606;44.062;2.986;2023-06-04T22:07:41;4.18;;;1.40;;
75928;SDS011;64606;44.062;2.986;2023-06-04T22:10:16;3.55;;;1.60;;
75928;SDS011;64606;44.062;2.986;2023-06-04T22:13:04;4.10;;;1.67;;
75928;SDS011;64606;44.062;2.986;2023-06-04T22:15:39;3.92;;;1.90;;
75928;SDS011;64606;44.062;2.986;2023-06-04T22:18:13;4.20;;;1.65;;
75928;SDS011;64606;44.062;2.986;2023-06-04T22:20:40;3.42;;;1.70;;
75928;SDS011;64606;44.062;2.986;2023-06-04T22:23:24;2.65;;;1.40;;
75928;SDS011;64606;44.062;2.986;2023-06-04T22:25:56;3.80;;;1.60;;
75928;SDS011;64606;44.062;2.986;2023-06-04T22:28:25;2.95;;;1.55;;
75928;SDS011;64606;44.062;2.986;2023-06-04T22:31:17;7.03;;;1.50;;
75928;SDS011;64606;44.062;2.986;2023-06-04T22:34:16;4.40;;;1.17;;
75928;SDS011;64606;44.062;2.986;2023-06-04T22:40:05;2.28;;;1.40;;
75928;SDS011;64606;44.062;2.986;2023-06-04T22:42:38;2.70;;;1.25;;
75928;SDS011;64606;44.062;2.986;2023-06-04T22:45:10;4.97;;;1.70;;
75928;SDS011;64606;44.062;2.986;2023-06-04T22:48:15;2.38;;;1.42;;
75928;SDS011;64606;44.062;2.986;2023-06-04T22:50:45;3.85;;;1.58;;
75928;SDS011;64606;44.062;2.986;2023-06-04T22:56:29;3.08;;;1.63;;
75928;SDS011;64606;44.062;2.986;2023-06-04T22:59:35;2.47;;;1.48;;
75928;SDS011;64606;44.062;2.986;2023-06-04T23:09:05;3.03;;;1.38;;
75928;SDS011;64606;44.062;2.986;2023-06-04T23:15:23;4.53;;;1.67;;
75928;SDS011;64606;44.062;2.986;2023-06-04T23:24:24;8.18;;;2.17;;
